Aviation Digital Data Service (ADDS)

Output produced by METARs form (0422 UTC 02 September 2014)
found at http://www.aviationweather.gov/adds/metars/
 
KILG 020351Z AUTO 20003KT 10SM CLR 26/24 A2997 RMK AO2 SLP147 T02560244 TSNO $
KILG 012340Z 0200/0224 18008KT P6SM SCT080 
     FM020200 22004KT P6SM SCT100 
     FM021400 25008KT P6SM SCT150 
     FM021800 21013KT P6SM SCT050 BKN200